Terminal Aerodrome Forecast
Issued by NWS Louisville, KY

Home | Current Version | Previous Version | Text Only | Print | Product List | Glossary On
Versions: 1 2 3 4 5 6 7 8 9 10 11 12 13 14 15 16 17 18 19 20
000
FTUS43 KLMK 271100
TAFLEX
TAF
KLEX 271122Z 2712/2812 24008KT P6SM VCSH OVC007
     FM271600 33010KT P6SM SCT007 BKN015
     FM271800 32010G20KT P6SM VCSH BKN025
     FM272200 34011KT P6SM SCT035
     FM280600 29007KT P6SM SKC=

USA.gov is the U.S. government's official web portal to all federal, state and local government web resources and services.